createdAt,value
2018-08-17T00:00:29.600Z,66.55
2018-08-17T00:01:29.584Z,66.74
2018-08-17T00:02:29.576Z,66.74
2018-08-17T00:03:29.569Z,66.27
2018-08-17T00:04:29.563Z,66.07
2018-08-17T00:05:29.557Z,65.84
2018-08-17T00:06:29.553Z,66.52
2018-08-17T00:07:29.545Z,66.81
2018-08-17T00:08:29.533Z,66.52
2018-08-17T00:09:29.531Z,66.52
2018-08-17T00:10:29.517Z,66.14
2018-08-17T00:11:29.516Z,66.91
2018-08-17T00:12:29.502Z,66.23
2018-08-17T00:13:29.499Z,67.19
2018-08-17T00:14:29.492Z,65.94
2018-08-17T00:15:29.484Z,65.37
2018-08-17T00:16:29.474Z,65.56
2018-08-17T00:17:29.466Z,65.56
2018-08-17T00:18:29.468Z,65.84
2018-08-17T00:19:29.458Z,66.14
2018-08-17T00:20:29.445Z,67.00
2018-08-17T00:21:29.440Z,67.48
2018-08-17T00:22:29.431Z,66.91
2018-08-17T00:23:29.423Z,66.04
2018-08-17T00:24:29.419Z,66.61
2018-08-17T00:25:29.410Z,66.61
2018-08-17T00:26:29.397Z,67.19
2018-08-17T00:27:29.394Z,67.58
2018-08-17T00:28:29.382Z,67.29
2018-08-17T00:29:29.378Z,67.38
2018-08-17T00:30:29.376Z,67.29
2018-08-17T00:31:29.364Z,66.61
2018-08-17T00:32:29.352Z,66.61
2018-08-17T00:33:29.345Z,66.61
2018-08-17T00:34:29.342Z,66.61
2018-08-17T00:35:29.337Z,67.19
2018-08-17T00:36:29.326Z,67.19
2018-08-17T00:37:29.317Z,67.38
2018-08-17T00:38:29.313Z,67.19
2018-08-17T00:39:29.306Z,67.38
2018-08-17T00:40:29.295Z,67.77
2018-08-17T00:41:29.289Z,67.86
2018-08-17T00:42:29.288Z,67.48
2018-08-17T00:43:29.273Z,67.58
2018-08-17T00:44:29.260Z,67.58
2018-08-17T00:45:29.258Z,67.48
2018-08-17T00:46:29.270Z,68.15
2018-08-17T00:47:29.241Z,68.25
2018-08-17T00:48:29.236Z,67.58
2018-08-17T00:49:29.229Z,68.06
2018-08-17T00:50:29.266Z,67.77
2018-08-17T00:51:29.213Z,68.06
2018-08-17T00:52:29.207Z,67.96
2018-08-17T00:53:29.195Z,68.25
2018-08-17T00:54:29.200Z,67.58
2018-08-17T00:55:29.185Z,68.15
2018-08-17T00:56:29.176Z,68.63
2018-08-17T00:57:29.169Z,68.44
2018-08-17T00:58:29.166Z,68.73
2018-08-17T00:59:29.148Z,68.54
2018-08-17T01:00:29.140Z,68.51
2018-08-17T01:01:29.133Z,68.51
2018-08-17T01:02:29.126Z,68.63
2018-08-17T01:03:29.123Z,68.51
2018-08-17T01:04:29.114Z,68.60
2018-08-17T01:05:29.106Z,67.93
2018-08-17T01:06:29.100Z,68.12
2018-08-17T01:07:29.093Z,67.35
2018-08-17T01:08:29.084Z,67.16
2018-08-17T01:09:29.073Z,68.31
2018-08-17T01:10:29.065Z,68.70
2018-08-17T01:11:29.059Z,68.31
2018-08-17T01:12:29.056Z,68.41
2018-08-17T01:13:29.049Z,68.60
2018-08-17T01:14:29.039Z,68.60
2018-08-17T01:15:29.032Z,68.41
2018-08-17T01:16:29.020Z,68.31
2018-08-17T01:17:29.010Z,68.70
2018-08-17T01:18:29.011Z,68.60
2018-08-17T01:19:28.996Z,69.08
2018-08-17T01:20:28.991Z,68.89
2018-08-17T01:21:28.981Z,68.79
2018-08-17T01:22:28.973Z,69.08
2018-08-17T01:23:28.968Z,69.08
2018-08-17T01:24:28.963Z,68.89
2018-08-17T01:25:28.954Z,69.08
2018-08-17T01:26:28.947Z,68.89
2018-08-17T01:27:28.939Z,68.70
2018-08-17T01:28:28.932Z,68.79
2018-08-17T01:29:28.918Z,68.79
2018-08-17T01:30:28.912Z,69.27
2018-08-17T01:31:28.907Z,69.18
2018-08-17T01:32:28.895Z,68.98
2018-08-17T01:33:28.889Z,68.89
2018-08-17T01:34:28.881Z,68.51
2018-08-17T01:35:28.877Z,68.51
2018-08-17T01:36:28.872Z,68.51
2018-08-17T01:37:28.865Z,68.18
2018-08-17T01:38:28.856Z,68.57
2018-08-17T01:39:28.840Z,68.66
2018-08-17T01:40:28.832Z,68.85
2018-08-17T01:41:28.830Z,69.05
2018-08-17T01:42:28.822Z,69.34
2018-08-17T01:43:28.808Z,68.95
2018-08-17T01:44:28.806Z,69.91
2018-08-17T01:45:28.799Z,69.34
2018-08-17T01:46:28.794Z,69.81
2018-08-17T01:47:28.783Z,70.01
2018-08-17T01:48:28.775Z,69.62
2018-08-17T01:49:28.763Z,69.81
2018-08-17T01:50:28.759Z,69.34
2018-08-17T01:51:28.750Z,68.85
2018-08-17T01:52:28.743Z,68.57
2018-08-17T01:53:28.734Z,68.95
2018-08-17T01:54:28.730Z,69.91
2018-08-17T01:55:28.718Z,69.72
2018-08-17T01:56:28.709Z,69.91
2018-08-17T01:57:28.705Z,69.05
2018-08-17T01:58:28.701Z,69.62
2018-08-17T01:59:28.683Z,69.43
2018-08-17T02:00:28.677Z,69.81
2018-08-17T02:01:28.668Z,69.81
2018-08-17T02:02:28.657Z,69.91
2018-08-17T02:03:28.655Z,69.62
2018-08-17T02:04:28.644Z,69.91
2018-08-17T02:05:28.636Z,69.72
2018-08-17T02:06:28.632Z,70.01
2018-08-17T02:07:28.618Z,70.01
2018-08-17T02:08:28.612Z,70.20
2018-08-17T02:09:28.606Z,70.20
2018-08-17T02:10:28.596Z,70.58
2018-08-17T02:11:28.587Z,70.87
2018-08-17T02:12:28.587Z,70.45
2018-08-17T02:13:28.577Z,70.01
2018-08-17T02:14:28.577Z,69.34
2018-08-17T02:15:28.561Z,69.30
2018-08-17T02:16:28.555Z,68.91
2018-08-17T02:17:28.539Z,69.68
2018-08-17T02:18:28.537Z,69.72
2018-08-17T02:19:28.522Z,69.78
2018-08-17T02:20:28.518Z,69.49
2018-08-17T02:21:28.510Z,69.59
2018-08-17T02:22:28.504Z,70.07
2018-08-17T02:23:28.497Z,70.07
2018-08-17T02:24:28.620Z,70.26
2018-08-17T02:25:28.477Z,69.81
2018-08-17T02:26:28.475Z,69.97
2018-08-17T02:27:28.466Z,70.10
2018-08-17T02:28:28.450Z,70.17
2018-08-17T02:29:28.458Z,70.26
2018-08-17T02:30:28.441Z,70.36
2018-08-17T02:31:28.428Z,70.45
2018-08-17T02:32:28.423Z,70.39
2018-08-17T02:33:28.412Z,70.74
2018-08-17T02:34:28.405Z,70.26
2018-08-17T02:35:28.402Z,70.64
2018-08-17T02:36:28.388Z,70.26
2018-08-17T02:37:28.387Z,70.36
2018-08-17T02:38:28.372Z,70.26
2018-08-17T02:39:28.369Z,70.26
2018-08-17T02:40:28.355Z,70.36
2018-08-17T02:41:28.352Z,70.36
2018-08-17T02:42:28.342Z,70.26
2018-08-17T02:43:28.330Z,70.17
2018-08-17T02:44:28.322Z,70.07
2018-08-17T02:45:28.318Z,70.64
2018-08-17T02:46:28.307Z,70.45
2018-08-17T02:47:28.302Z,70.45
2018-08-17T02:48:28.295Z,70.45
2018-08-17T02:49:28.284Z,70.26
2018-08-17T02:50:28.278Z,70.55
2018-08-17T02:51:28.268Z,70.74
2018-08-17T02:52:28.265Z,70.45
2018-08-17T02:53:28.252Z,70.07
2018-08-17T02:54:28.249Z,70.64
2018-08-17T02:55:28.238Z,70.42
2018-08-17T02:56:28.228Z,70.23
2018-08-17T02:57:28.220Z,70.51
2018-08-17T02:58:28.209Z,70.42
2018-08-17T02:59:28.262Z,70.74
2018-08-17T03:00:28.198Z,71.09
2018-08-17T03:01:28.199Z,70.61
2018-08-17T03:02:28.179Z,71.41
2018-08-17T03:03:28.182Z,71.31
2018-08-17T03:04:28.162Z,70.80
2018-08-17T03:05:28.159Z,71.19
2018-08-17T03:06:28.154Z,70.61
2018-08-17T03:07:28.137Z,70.42
2018-08-17T03:08:28.133Z,70.90
2018-08-17T03:09:28.128Z,70.42
2018-08-17T03:10:28.117Z,70.90
2018-08-17T03:11:28.104Z,70.80
2018-08-17T03:12:28.098Z,70.80
2018-08-17T03:13:28.093Z,70.70
2018-08-17T03:14:28.091Z,71.09
2018-08-17T03:15:28.077Z,71.47
2018-08-17T03:16:28.067Z,71.66
2018-08-17T03:17:28.059Z,71.37
2018-08-17T03:18:28.054Z,71.47
2018-08-17T03:19:28.044Z,71.37
2018-08-17T03:20:28.035Z,72.05
2018-08-17T03:21:28.030Z,71.86
2018-08-17T03:22:28.012Z,71.37
2018-08-17T03:23:28.006Z,71.37
2018-08-17T03:24:28.001Z,71.47
2018-08-17T03:25:27.993Z,71.76
2018-08-17T03:26:27.980Z,72.14
2018-08-17T03:27:27.970Z,71.66
2018-08-17T03:28:27.967Z,71.76
2018-08-17T03:29:27.956Z,72.05
2018-08-17T03:30:27.950Z,72.14
2018-08-17T03:31:27.943Z,71.76
2018-08-17T03:32:27.933Z,71.66
2018-08-17T03:33:27.924Z,70.99
2018-08-17T03:34:27.913Z,70.80
2018-08-17T03:35:27.912Z,70.80
2018-08-17T03:36:27.898Z,70.70
2018-08-17T03:37:27.895Z,71.28
2018-08-17T03:38:27.886Z,71.37
2018-08-17T03:39:27.877Z,71.37
2018-08-17T03:40:27.911Z,72.05
2018-08-17T03:41:27.850Z,71.86
2018-08-17T03:42:27.848Z,71.57
2018-08-17T03:43:27.835Z,71.66
2018-08-17T03:44:27.830Z,71.66
2018-08-17T03:45:27.828Z,71.57
2018-08-17T03:46:27.818Z,71.09
2018-08-17T03:47:27.806Z,71.09
2018-08-17T03:48:27.795Z,70.80
2018-08-17T03:49:27.789Z,70.99
2018-08-17T03:50:27.778Z,70.80
2018-08-17T03:51:27.773Z,70.80
2018-08-17T03:52:27.764Z,70.61
2018-08-17T03:53:27.754Z,70.99
2018-08-17T03:54:27.745Z,71.09
2018-08-17T03:55:27.738Z,71.76
2018-08-17T03:56:27.724Z,71.09
2018-08-17T03:57:27.722Z,71.28
2018-08-17T03:58:27.714Z,71.47
2018-08-17T03:59:27.702Z,72.14
2018-08-17T04:00:27.694Z,71.86
2018-08-17T04:01:27.717Z,72.05
2018-08-17T04:02:27.680Z,71.95
2018-08-17T04:03:27.676Z,71.57
2018-08-17T04:04:27.658Z,71.66
2018-08-17T04:05:27.663Z,71.86
2018-08-17T04:06:27.647Z,71.76
2018-08-17T04:07:27.637Z,70.99
2018-08-17T04:08:27.627Z,71.37
2018-08-17T04:09:27.627Z,71.19
2018-08-17T04:10:27.609Z,71.37
2018-08-17T04:11:27.601Z,71.76
2018-08-17T04:12:27.601Z,71.28
2018-08-17T04:13:27.586Z,71.09
2018-08-17T04:14:27.574Z,71.28
2018-08-17T04:15:27.589Z,71.37
2018-08-17T04:16:27.562Z,71.47
2018-08-17T04:17:27.546Z,71.86
2018-08-17T04:18:27.540Z,71.66
2018-08-17T04:19:27.535Z,72.63
2018-08-17T04:20:27.525Z,72.43
2018-08-17T04:21:27.519Z,72.24
2018-08-17T04:22:27.509Z,70.42
2018-08-17T04:23:27.502Z,70.42
2018-08-17T04:24:27.488Z,70.51
2018-08-17T04:25:27.484Z,70.42
2018-08-17T04:26:27.475Z,70.32
2018-08-17T04:27:27.469Z,71.19
2018-08-17T04:28:27.457Z,71.86
2018-08-17T04:29:27.449Z,71.86
2018-08-17T04:30:27.443Z,71.47
2018-08-17T04:31:27.440Z,71.95
2018-08-17T04:32:27.422Z,71.09
2018-08-17T04:33:27.421Z,70.23
2018-08-17T04:34:27.410Z,70.61
2018-08-17T04:35:30.114Z,70.80
2018-08-17T04:36:27.393Z,71.09
2018-08-17T04:37:27.380Z,70.80
2018-08-17T04:38:27.376Z,70.80
2018-08-17T04:39:27.369Z,71.28
2018-08-17T04:40:27.358Z,71.82
2018-08-17T04:41:27.346Z,71.95
2018-08-17T04:42:27.347Z,71.86
2018-08-17T04:43:27.337Z,71.66
2018-08-17T04:44:27.324Z,71.66
2018-08-17T04:45:27.321Z,72.01
2018-08-17T04:46:27.308Z,72.39
2018-08-17T04:47:27.302Z,72.20
2018-08-17T04:48:27.291Z,72.91
2018-08-17T04:49:27.287Z,72.68
2018-08-17T04:50:27.275Z,73.35
2018-08-17T04:51:27.262Z,73.07
2018-08-17T04:52:27.249Z,72.68
2018-08-17T04:53:27.247Z,72.39
2018-08-17T04:54:27.236Z,73.16
2018-08-17T04:55:27.231Z,72.91
2018-08-17T04:56:27.221Z,73.00
2018-08-17T04:57:27.213Z,73.00
2018-08-17T04:58:27.207Z,73.20
2018-08-17T04:59:27.197Z,72.72
2018-08-17T05:00:27.189Z,73.10
2018-08-17T05:01:27.175Z,73.10
2018-08-17T05:02:27.173Z,73.00
2018-08-17T05:03:27.182Z,73.10
2018-08-17T05:04:27.150Z,73.20
2018-08-17T05:05:27.142Z,72.72
2018-08-17T05:06:27.134Z,72.14
2018-08-17T05:07:27.133Z,72.43
2018-08-17T05:08:27.119Z,72.53
2018-08-17T05:09:27.111Z,72.63
2018-08-17T05:10:27.105Z,72.91
2018-08-17T05:11:27.099Z,72.05
2018-08-17T05:12:27.081Z,72.24
2018-08-17T05:13:27.075Z,72.33
2018-08-17T05:14:27.069Z,71.76
2018-08-17T05:15:27.060Z,71.57
2018-08-17T05:16:27.048Z,71.76
2018-08-17T05:17:27.044Z,70.80
2018-08-17T05:18:27.036Z,70.70
2018-08-17T05:19:27.023Z,70.23
2018-08-17T05:20:27.019Z,70.70
2018-08-17T05:21:27.041Z,70.90
2018-08-17T05:22:26.999Z,70.70
2018-08-17T05:23:27.058Z,71.28
2018-08-17T05:24:26.983Z,72.05
2018-08-17T05:25:26.978Z,71.66
2018-08-17T05:26:26.968Z,71.76
2018-08-17T05:27:26.955Z,72.43
2018-08-17T05:28:26.954Z,72.14
2018-08-17T05:29:26.941Z,72.81
2018-08-17T05:30:26.926Z,73.10
2018-08-17T05:31:26.925Z,73.10
2018-08-17T05:32:26.914Z,73.00
2018-08-17T05:33:26.907Z,73.68
2018-08-17T05:34:26.903Z,73.49
2018-08-17T05:35:26.890Z,73.77
2018-08-17T05:36:26.888Z,73.68
2018-08-17T05:37:26.871Z,73.68
2018-08-17T05:38:26.864Z,73.58
2018-08-17T05:39:26.849Z,74.44
2018-08-17T05:40:26.849Z,73.68
2018-08-17T05:41:26.833Z,73.97
2018-08-17T05:42:26.827Z,74.16
2018-08-17T05:43:26.819Z,74.06
2018-08-17T05:44:26.813Z,74.44
2018-08-17T05:45:26.809Z,74.06
2018-08-17T05:46:26.791Z,74.35
2018-08-17T05:47:26.805Z,74.06
2018-08-17T05:48:26.779Z,74.26
2018-08-17T05:49:26.776Z,74.35
2018-08-17T05:50:26.763Z,74.35
2018-08-17T05:51:26.759Z,73.97
2018-08-17T05:52:26.746Z,73.87
2018-08-17T05:53:26.735Z,73.97
2018-08-17T05:54:26.731Z,74.06
2018-08-17T05:55:26.761Z,73.97
2018-08-17T05:56:26.712Z,74.35
2018-08-17T05:57:26.705Z,73.87
2018-08-17T05:58:26.691Z,74.26
2018-08-17T05:59:26.696Z,73.68
2018-08-17T06:00:26.673Z,73.52
2018-08-17T06:01:26.686Z,74.01
2018-08-17T06:02:26.657Z,74.19
2018-08-17T06:03:26.652Z,74.29
2018-08-17T06:04:26.646Z,74.01
2018-08-17T06:05:26.636Z,74.19
2018-08-17T06:06:26.628Z,74.96
2018-08-17T06:07:26.622Z,74.87
2018-08-17T06:08:26.606Z,73.43
2018-08-17T06:09:26.600Z,73.81
2018-08-17T06:10:26.592Z,73.91
2018-08-17T06:11:26.700Z,74.39
2018-08-17T06:12:26.573Z,74.01
2018-08-17T06:13:26.567Z,74.29
2018-08-17T06:14:26.558Z,74.48
2018-08-17T06:15:26.549Z,74.39
2018-08-17T06:16:26.541Z,74.29
2018-08-17T06:17:26.533Z,73.91
2018-08-17T06:18:26.526Z,73.72
2018-08-17T06:19:26.514Z,73.81
2018-08-17T06:20:26.506Z,73.33
2018-08-17T06:21:26.500Z,73.24
2018-08-17T06:22:26.492Z,73.04
2018-08-17T06:23:26.482Z,73.33
2018-08-17T06:24:26.472Z,74.19
2018-08-17T06:25:26.465Z,73.81
2018-08-17T06:26:26.461Z,73.94
2018-08-17T06:27:26.451Z,74.33
2018-08-17T06:28:26.440Z,74.43
2018-08-17T06:29:26.431Z,73.75
2018-08-17T06:30:26.431Z,73.75
2018-08-17T06:31:26.426Z,74.37
2018-08-17T06:32:26.406Z,74.08
2018-08-17T06:33:26.394Z,73.88
2018-08-17T06:34:26.393Z,73.31
2018-08-17T06:35:26.389Z,72.86
2018-08-17T06:36:26.369Z,72.58
2018-08-17T06:37:26.440Z,71.91
2018-08-17T06:38:26.358Z,71.33
2018-08-17T06:39:26.350Z,71.52
2018-08-17T06:40:26.346Z,70.88
2018-08-17T06:41:26.369Z,70.98
2018-08-17T06:42:26.323Z,71.36
2018-08-17T06:43:26.321Z,70.50
2018-08-17T06:44:26.313Z,70.78
2018-08-17T06:45:26.301Z,70.68
2018-08-17T06:46:26.297Z,70.59
2018-08-17T06:47:26.293Z,70.82
2018-08-17T06:48:26.279Z,70.40
2018-08-17T06:49:26.269Z,69.95
2018-08-17T06:50:26.261Z,70.62
2018-08-17T06:51:26.254Z,70.72
2018-08-17T06:52:26.244Z,70.15
2018-08-17T06:53:26.239Z,69.95
2018-08-17T06:54:26.230Z,70.24
2018-08-17T06:55:26.223Z,68.99
2018-08-17T06:56:26.221Z,69.15
2018-08-17T06:57:26.206Z,69.09
2018-08-17T06:58:26.200Z,69.24
2018-08-17T06:59:26.199Z,69.53
2018-08-17T07:00:26.191Z,69.92
2018-08-17T07:01:26.179Z,69.82
2018-08-17T07:02:27.190Z,70.30
2018-08-17T07:03:26.163Z,70.30
2018-08-17T07:04:26.159Z,70.50
2018-08-17T07:05:26.145Z,70.30
2018-08-17T07:06:26.140Z,69.92
2018-08-17T07:07:26.148Z,70.11
2018-08-17T07:08:26.125Z,70.50
2018-08-17T07:09:26.182Z,70.88
2018-08-17T07:10:26.114Z,70.50
2018-08-17T07:11:26.107Z,70.37
2018-08-17T07:12:26.096Z,70.27
2018-08-17T07:13:26.092Z,70.56
2018-08-17T07:14:26.091Z,70.94
2018-08-17T07:15:26.070Z,71.14
2018-08-17T07:16:26.063Z,70.78
2018-08-17T07:17:26.054Z,70.88
2018-08-17T07:18:26.050Z,71.17
2018-08-17T07:19:26.043Z,71.36
2018-08-17T07:20:26.034Z,71.30
2018-08-17T07:21:26.031Z,71.88
2018-08-17T07:22:26.024Z,70.92
2018-08-17T07:23:26.017Z,71.01
2018-08-17T07:24:25.997Z,70.62
2018-08-17T07:25:25.997Z,70.92
2018-08-17T07:26:25.992Z,72.01
2018-08-17T07:27:25.984Z,70.37
2018-08-17T07:28:25.976Z,70.86
2018-08-17T07:29:25.967Z,69.31
2018-08-17T07:30:25.962Z,68.87
2018-08-17T07:31:25.952Z,68.68
2018-08-17T07:32:25.940Z,68.68
2018-08-17T07:33:25.936Z,68.77
2018-08-17T07:34:25.930Z,68.87
2018-08-17T07:35:25.924Z,68.04
2018-08-17T07:36:25.914Z,68.42
2018-08-17T07:37:26.510Z,67.36
2018-08-17T07:38:25.908Z,67.46
2018-08-17T07:39:25.899Z,68.13
2018-08-17T07:40:25.883Z,65.91
2018-08-17T07:41:25.879Z,65.56
2018-08-17T07:42:25.872Z,64.21
2018-08-17T07:43:25.866Z,64.59
2018-08-17T07:44:25.862Z,64.31
2018-08-17T07:45:25.852Z,64.02
2018-08-17T07:46:25.850Z,64.59
2018-08-17T07:47:25.837Z,63.76
2018-08-17T07:48:25.834Z,64.63
2018-08-17T07:49:25.824Z,64.34
2018-08-17T07:50:25.820Z,63.67
2018-08-17T07:51:25.807Z,63.28
2018-08-17T07:52:25.801Z,62.12
2018-08-17T07:53:25.800Z,62.41
2018-08-17T07:54:25.791Z,62.05
2018-08-17T07:55:25.787Z,62.44
2018-08-17T07:56:25.773Z,61.67
2018-08-17T07:57:25.771Z,62.63
2018-08-17T07:58:25.764Z,62.63
2018-08-17T07:59:25.759Z,61.19
2018-08-17T08:00:25.758Z,60.83
2018-08-17T08:01:25.744Z,61.80
2018-08-17T08:02:25.734Z,61.51
2018-08-17T08:03:25.736Z,61.99
2018-08-17T08:04:25.724Z,62.28
2018-08-17T08:05:25.722Z,61.99
2018-08-17T08:06:25.719Z,62.66
2018-08-17T08:07:25.705Z,61.60
2018-08-17T08:08:25.703Z,60.64
2018-08-17T08:09:25.692Z,59.48
2018-08-17T08:10:25.687Z,58.80
2018-08-17T08:11:25.679Z,59.00
2018-08-17T08:12:25.675Z,59.48
2018-08-17T08:13:25.668Z,59.28
2018-08-17T08:14:25.660Z,59.48
2018-08-17T08:15:25.659Z,58.03
2018-08-17T08:16:25.645Z,58.51
2018-08-17T08:17:25.645Z,57.74
2018-08-17T08:18:25.639Z,59.48
2018-08-17T08:19:25.630Z,59.28
2018-08-17T08:20:25.772Z,59.00
2018-08-17T08:21:25.621Z,58.97
2018-08-17T08:22:25.616Z,59.35
2018-08-17T08:23:25.606Z,59.19
2018-08-17T08:24:25.605Z,56.68
2018-08-17T08:25:25.594Z,56.00
2018-08-17T08:26:25.590Z,56.29
2018-08-17T08:27:25.588Z,56.20
2018-08-17T08:28:25.580Z,57.16
2018-08-17T08:29:25.567Z,57.38
2018-08-17T08:30:25.561Z,58.15
2018-08-17T08:31:25.553Z,56.22
2018-08-17T08:32:25.602Z,56.05
2018-08-17T08:33:25.544Z,54.61
2018-08-17T08:34:25.540Z,53.83
2018-08-17T08:35:25.536Z,53.35
2018-08-17T08:36:25.529Z,53.64
2018-08-17T08:37:25.522Z,53.25
2018-08-17T08:38:25.520Z,54.22
2018-08-17T08:39:25.516Z,55.57
2018-08-17T08:40:25.506Z,55.29
2018-08-17T08:41:25.506Z,55.47
2018-08-17T08:42:25.498Z,54.61
2018-08-17T08:43:25.485Z,54.41
2018-08-17T08:44:25.479Z,54.32
2018-08-17T08:45:25.482Z,54.25
2018-08-17T08:46:25.471Z,55.60
2018-08-17T08:47:25.467Z,55.11
2018-08-17T08:48:25.479Z,55.70
2018-08-17T08:49:25.455Z,54.53
2018-08-17T08:50:25.449Z,54.73
2018-08-17T08:51:25.444Z,55.38
2018-08-17T08:52:25.435Z,54.19
2018-08-17T08:53:25.434Z,54.90
2018-08-17T08:54:25.432Z,56.03
2018-08-17T08:55:25.424Z,55.35
2018-08-17T08:56:25.418Z,55.45
2018-08-17T08:57:25.407Z,55.65
2018-08-17T08:58:25.410Z,55.26
2018-08-17T08:59:25.395Z,55.35
2018-08-17T09:00:25.390Z,56.00
2018-08-17T09:01:25.389Z,55.33
2018-08-17T09:02:25.379Z,55.90
2018-08-17T09:03:25.378Z,55.81
2018-08-17T09:04:25.366Z,56.10
2018-08-17T09:05:25.363Z,55.33
2018-08-17T09:06:25.356Z,55.35
2018-08-17T09:07:25.355Z,56.32
2018-08-17T09:08:25.345Z,55.45
2018-08-17T09:09:25.341Z,55.57
2018-08-17T09:10:25.332Z,55.38
2018-08-17T09:11:25.330Z,55.09
2018-08-17T09:12:25.326Z,55.19
2018-08-17T09:13:25.320Z,55.57
2018-08-17T09:14:25.312Z,55.19
2018-08-17T09:15:25.307Z,54.61
2018-08-17T09:16:25.299Z,54.51
2018-08-17T09:17:25.293Z,55.09
2018-08-17T09:18:25.294Z,54.71
2018-08-17T09:19:25.293Z,54.13
2018-08-17T09:20:25.356Z,54.71
2018-08-17T09:21:25.270Z,54.35
2018-08-17T09:22:25.268Z,52.89
2018-08-17T09:23:25.260Z,52.51
2018-08-17T09:24:25.281Z,52.31
2018-08-17T09:25:25.249Z,50.86
2018-08-17T09:26:25.246Z,50.96
2018-08-17T09:27:25.242Z,52.31
2018-08-17T09:28:25.237Z,51.73
2018-08-17T09:29:25.227Z,51.13
2018-08-17T09:30:25.221Z,51.61
2018-08-17T09:31:25.216Z,50.35
2018-08-17T09:32:25.217Z,49.32
2018-08-17T09:33:25.202Z,50.35
2018-08-17T09:34:25.204Z,49.77
2018-08-17T09:35:25.196Z,50.35
2018-08-17T09:36:25.187Z,49.99
2018-08-17T09:37:25.185Z,50.38
2018-08-17T09:38:25.187Z,50.18
2018-08-17T09:39:25.167Z,50.67
2018-08-17T09:40:25.166Z,50.60
2018-08-17T09:41:25.154Z,50.98
2018-08-17T09:42:25.155Z,49.73
2018-08-17T09:43:25.144Z,49.92
2018-08-17T09:44:25.156Z,50.79
2018-08-17T09:45:25.138Z,48.57
2018-08-17T09:46:25.125Z,47.41
2018-08-17T09:47:25.130Z,48.49
2018-08-17T09:48:25.125Z,48.59
2018-08-17T09:49:25.116Z,48.69
2018-08-17T09:50:25.112Z,48.52
2018-08-17T09:51:25.201Z,47.64
2018-08-17T09:52:25.099Z,45.81
2018-08-17T09:53:25.095Z,46.87
2018-08-17T09:54:25.092Z,45.90
2018-08-17T09:55:25.084Z,46.58
2018-08-17T09:56:25.092Z,47.45
2018-08-17T09:57:25.119Z,45.90
2018-08-17T09:58:25.079Z,45.51
2018-08-17T09:59:25.067Z,47.26
2018-08-17T10:00:25.064Z,47.45
2018-08-17T10:01:25.052Z,47.64
2018-08-17T10:02:25.044Z,46.19
2018-08-17T10:03:25.043Z,46.29
2018-08-17T10:04:25.037Z,46.22
2018-08-17T10:05:25.031Z,46.19
2018-08-17T10:06:25.035Z,47.06
2018-08-17T10:07:25.023Z,46.39
2018-08-17T10:08:25.022Z,45.71
2018-08-17T10:09:25.013Z,47.06
2018-08-17T10:10:25.009Z,46.00
2018-08-17T10:11:25.004Z,46.60
2018-08-17T10:12:25.000Z,46.09
2018-08-17T10:13:24.996Z,46.00
2018-08-17T10:14:24.990Z,45.13
2018-08-17T10:15:24.982Z,45.71
2018-08-17T10:16:24.983Z,46.87
2018-08-17T10:17:24.979Z,46.41
2018-08-17T10:18:24.974Z,46.22
2018-08-17T10:19:24.968Z,46.12
2018-08-17T10:20:24.959Z,45.25
2018-08-17T10:21:25.136Z,45.05
2018-08-17T10:22:24.950Z,45.44
2018-08-17T10:23:24.943Z,45.15
2018-08-17T10:24:24.938Z,44.86
2018-08-17T10:25:24.935Z,45.15
2018-08-17T10:26:24.936Z,45.25
2018-08-17T10:27:24.927Z,45.34
2018-08-17T10:28:24.918Z,45.75
2018-08-17T10:29:24.914Z,46.14
2018-08-17T10:30:24.916Z,45.07
2018-08-17T10:31:24.906Z,44.88
2018-08-17T10:32:24.902Z,45.17
2018-08-17T10:33:24.896Z,45.07
2018-08-17T10:34:24.892Z,44.78
2018-08-17T10:35:24.887Z,45.07
2018-08-17T10:36:24.881Z,44.40
2018-08-17T10:37:24.879Z,44.51
2018-08-17T10:38:24.875Z,45.27
2018-08-17T10:39:24.873Z,44.90
2018-08-17T10:40:24.865Z,44.71
2018-08-17T10:41:24.864Z,45.48
2018-08-17T10:42:24.859Z,44.51
2018-08-17T10:43:24.851Z,44.71
2018-08-17T10:44:24.845Z,44.32
2018-08-17T10:45:24.843Z,43.45
2018-08-17T10:46:24.840Z,44.03
2018-08-17T10:47:24.832Z,44.23
2018-08-17T10:48:24.832Z,45.02
2018-08-17T10:49:24.826Z,44.44
2018-08-17T10:50:24.821Z,44.05
2018-08-17T10:51:24.820Z,42.40
2018-08-17T10:52:24.815Z,42.11
2018-08-17T10:53:24.805Z,42.21
2018-08-17T10:54:24.807Z,43.18
2018-08-17T10:55:24.831Z,44.17
2018-08-17T10:56:24.794Z,42.40
2018-08-17T10:57:24.814Z,42.52
2018-08-17T10:58:24.789Z,46.01
2018-08-17T10:59:24.783Z,44.95
2018-08-17T11:00:24.779Z,42.13
2018-08-17T11:01:24.773Z,41.26
2018-08-17T11:02:24.771Z,41.33
2018-08-17T11:03:24.770Z,42.02
2018-08-17T11:04:24.761Z,42.02
2018-08-17T11:05:24.760Z,42.60
2018-08-17T11:06:24.753Z,42.21
2018-08-17T11:07:24.749Z,42.69
2018-08-17T11:08:24.744Z,42.89
2018-08-17T11:09:24.747Z,41.82
2018-08-17T11:10:24.737Z,43.47
2018-08-17T11:11:24.738Z,42.40
2018-08-17T11:12:24.730Z,41.43
2018-08-17T11:13:24.731Z,41.53
2018-08-17T11:14:24.731Z,41.05
2018-08-17T11:15:24.717Z,40.95
2018-08-17T11:16:24.713Z,40.77
2018-08-17T11:17:24.710Z,41.05
2018-08-17T11:18:24.703Z,41.26
2018-08-17T11:19:24.703Z,41.16
2018-08-17T11:20:24.697Z,40.67
2018-08-17T11:21:24.697Z,40.67
2018-08-17T11:22:24.689Z,41.06
2018-08-17T11:23:24.684Z,41.94
2018-08-17T11:24:24.686Z,42.13
2018-08-17T11:25:24.674Z,40.58
2018-08-17T11:26:24.677Z,41.28
2018-08-17T11:27:24.669Z,40.69
2018-08-17T11:28:24.660Z,41.57
2018-08-17T11:29:24.663Z,39.62
2018-08-17T11:30:24.661Z,39.43
2018-08-17T11:31:24.652Z,39.04
2018-08-17T11:32:24.654Z,41.18
2018-08-17T11:33:24.652Z,41.18
2018-08-17T11:34:24.737Z,42.27
2018-08-17T11:35:24.640Z,40.23
2018-08-17T11:36:24.643Z,38.77
2018-08-17T11:37:24.639Z,38.77
2018-08-17T11:38:24.628Z,40.33
2018-08-17T11:39:24.627Z,40.33
2018-08-17T11:40:24.621Z,40.03
2018-08-17T11:41:24.655Z,40.33
2018-08-17T11:42:24.617Z,39.65
2018-08-17T11:43:24.611Z,38.57
2018-08-17T11:44:24.608Z,38.48
2018-08-17T11:45:24.597Z,38.19
2018-08-17T11:46:24.597Z,38.50
2018-08-17T11:47:24.593Z,39.16
2018-08-17T11:48:24.601Z,39.84
2018-08-17T11:49:24.596Z,38.11
2018-08-17T11:50:24.586Z,38.21
2018-08-17T11:51:24.584Z,39.67
2018-08-17T11:52:24.580Z,38.89
2018-08-17T11:53:24.582Z,37.72
2018-08-17T11:54:24.572Z,37.34
2018-08-17T11:55:24.567Z,38.01
2018-08-17T11:56:24.563Z,37.72
2018-08-17T11:57:24.565Z,37.82
2018-08-17T11:58:24.565Z,38.11
2018-08-17T11:59:24.560Z,37.34
2018-08-17T12:00:24.559Z,37.04
2018-08-17T12:01:24.550Z,38.01
2018-08-17T12:02:24.552Z,37.54
2018-08-17T12:03:24.541Z,37.62
2018-08-17T12:04:24.542Z,37.54
2018-08-17T12:05:24.539Z,38.81
2018-08-17T12:06:24.531Z,38.81
2018-08-17T12:07:24.536Z,38.13
2018-08-17T12:08:24.579Z,41.05
2018-08-17T12:09:24.523Z,38.42
2018-08-17T12:10:24.523Z,37.84
2018-08-17T12:11:24.523Z,37.35
2018-08-17T12:12:24.515Z,37.26
2018-08-17T12:13:24.506Z,36.94
2018-08-17T12:14:24.512Z,38.60
2018-08-17T12:15:24.508Z,38.70
2018-08-17T12:16:24.498Z,41.34
2018-08-17T12:17:24.500Z,38.52
2018-08-17T12:18:24.496Z,37.54
2018-08-17T12:19:24.496Z,36.96
2018-08-17T12:20:24.495Z,36.96
2018-08-17T12:21:24.485Z,37.06
2018-08-17T12:22:24.486Z,36.47
2018-08-17T12:23:24.483Z,36.77
2018-08-17T12:24:24.560Z,37.45
2018-08-17T12:25:24.480Z,39.20
2018-08-17T12:26:24.473Z,37.64
2018-08-17T12:27:24.471Z,37.46
2018-08-17T12:28:24.464Z,36.79
2018-08-17T12:29:24.470Z,36.88
2018-08-17T12:30:24.458Z,37.18
2018-08-17T12:31:24.458Z,37.18
2018-08-17T12:32:24.456Z,37.18
2018-08-17T12:33:24.452Z,37.08
2018-08-17T12:34:24.452Z,37.46
2018-08-17T12:35:24.447Z,37.27
2018-08-17T12:36:24.441Z,37.08
2018-08-17T12:37:24.437Z,36.40
2018-08-17T12:38:24.441Z,38.34
2018-08-17T12:39:24.435Z,37.18
2018-08-17T12:40:24.437Z,36.59
2018-08-17T12:41:24.432Z,36.20
2018-08-17T12:42:24.427Z,35.13
2018-08-17T12:43:24.424Z,35.71
2018-08-17T12:44:24.419Z,36.40
2018-08-17T12:45:24.416Z,35.23
2018-08-17T12:46:24.424Z,36.59
2018-08-17T12:47:24.414Z,36.79
2018-08-17T12:48:24.408Z,38.83
2018-08-17T12:49:24.414Z,36.79
2018-08-17T12:50:24.403Z,36.49
2018-08-17T12:51:24.399Z,36.20
2018-08-17T12:52:24.446Z,36.49